Time;durP1;ratioP1;P1;durP2;ratioP2;P2;SDS_P1;SDS_P2;PMS_P1;PMS_P2;Temp;Humidity;BMP_temperature;BMP_pressure;BME280_temperature;BME280_humidity;BME280_pressure;Samples;Min_cycle;Max_cycle;Signal;HPM_P1;HPM_P2
2020/12/27 00:01:05;;;;;;;1.50;1.40;;;4.30;99.90;;;;;;5064029;28;20198;-85
2020/12/27 00:03:32;;;;;;;2.45;1.90;;;4.30;99.90;;;;;;5064641;28;20198;-84
2020/12/27 00:05:58;;;;;;;1.50;1.40;;;4.20;99.90;;;;;;5063980;28;20233;-84
2020/12/27 00:08:25;;;;;;;2.25;1.52;;;4.30;99.90;;;;;;5063603;28;20208;-84
2020/12/27 00:10:51;;;;;;;2.20;2.08;;;4.20;99.90;;;;;;5064286;28;20656;-83
2020/12/27 00:13:17;;;;;;;2.60;1.77;;;4.20;99.90;;;;;;5064352;28;20408;-86
2020/12/27 00:15:44;;;;;;;4.35;1.70;;;4.20;99.90;;;;;;5064110;28;20218;-83
2020/12/27 00:18:10;;;;;;;1.13;0.90;;;4.20;99.90;;;;;;5064167;28;20230;-84
2020/12/27 00:20:37;;;;;;;1.60;1.10;;;4.20;99.90;;;;;;5064005;28;20202;-84
2020/12/27 00:23:03;;;;;;;1.40;1.30;;;4.20;99.90;;;;;;5064453;28;20209;-83
2020/12/27 00:25:31;;;;;;;1.52;1.42;;;4.20;99.90;;;;;;5063666;28;20242;-82
2020/12/27 00:27:57;;;;;;;1.30;1.10;;;4.20;99.90;;;;;;5062535;28;20195;-83
2020/12/27 00:30:24;;;;;;;1.45;1.35;;;4.20;99.90;;;;;;5063174;28;20198;-83
2020/12/27 00:32:50;;;;;;;1.48;1.38;;;4.20;99.90;;;;;;5063771;28;20357;-84
2020/12/27 00:35:17;;;;;;;3.13;1.42;;;4.20;99.90;;;;;;5064173;28;20225;-84
2020/12/27 00:37:44;;;;;;;2.42;1.50;;;4.20;99.90;;;;;;5063845;28;20206;-84
2020/12/27 00:40:11;;;;;;;1.48;1.38;;;4.20;99.90;;;;;;5064755;28;20194;-82
2020/12/27 00:42:37;;;;;;;2.08;1.40;;;4.10;99.90;;;;;;5062230;28;20197;-84
2020/12/27 00:45:04;;;;;;;1.73;1.63;;;4.10;99.90;;;;;;5062026;28;20226;-84
2020/12/27 00:47:30;;;;;;;2.40;1.17;;;4.20;99.90;;;;;;5061901;28;20243;-80
2020/12/27 00:49:56;;;;;;;1.77;1.25;;;4.10;99.90;;;;;;5062553;28;20191;-83
2020/12/27 00:52:23;;;;;;;1.60;1.20;;;4.10;99.90;;;;;;5062698;28;20194;-83
2020/12/27 00:54:50;;;;;;;1.88;1.77;;;4.10;99.90;;;;;;5062069;28;20281;-82
2020/12/27 00:57:16;;;;;;;1.40;1.30;;;4.10;99.90;;;;;;5053854;28;20187;-84
2020/12/27 00:59:42;;;;;;;1.60;1.50;;;4.10;99.90;;;;;;5063104;28;20216;-86
2020/12/27 01:02:08;;;;;;;1.45;1.25;;;4.00;99.90;;;;;;5065603;28;20216;-83
2020/12/27 01:04:35;;;;;;;1.30;1.20;;;4.00;99.90;;;;;;5064622;28;20222;-83
2020/12/27 01:07:01;;;;;;;2.45;1.20;;;4.00;99.90;;;;;;5066926;28;20277;-85
2020/12/27 01:09:28;;;;;;;1.80;1.70;;;4.00;99.90;;;;;;5064274;28;20202;-84
2020/12/27 01:11:56;;;;;;;1.33;1.23;;;4.00;99.90;;;;;;5063590;28;20289;-83
2020/12/27 01:14:22;;;;;;;1.35;1.25;;;4.00;99.90;;;;;;5062796;28;20209;-84
2020/12/27 01:16:49;;;;;;;1.10;1.00;;;4.10;99.90;;;;;;5065536;28;20215;-84
2020/12/27 01:19:17;;;;;;;1.60;1.50;;;4.10;99.90;;;;;;5065270;28;20197;-84
2020/12/27 01:21:43;;;;;;;1.10;1.00;;;4.10;99.90;;;;;;5066339;28;20199;-82
2020/12/27 01:24:10;;;;;;;1.65;1.55;;;4.10;99.90;;;;;;5066785;28;20716;-83
2020/12/27 01:26:36;;;;;;;1.33;1.23;;;4.10;99.90;;;;;;5065225;28;20259;-83
2020/12/27 01:29:04;;;;;;;1.05;1.05;;;4.10;99.90;;;;;;5065133;28;20210;-84
2020/12/27 01:31:32;;;;;;;2.50;1.50;;;4.10;99.90;;;;;;5065497;28;20197;-84
2020/12/27 01:33:59;;;;;;;1.85;1.27;;;4.10;99.90;;;;;;5065337;28;20267;-83
2020/12/27 01:36:29;;;;;;;1.25;1.15;;;4.10;99.90;;;;;;5063728;28;20218;-85
2020/12/27 01:38:56;;;;;;;1.48;1.38;;;4.10;99.90;;;;;;5065400;28;20195;-85
2020/12/27 01:41:23;;;;;;;1.67;1.58;;;4.10;99.90;;;;;;5065722;28;20208;-83
2020/12/27 01:44:05;;;;;;;1.40;1.30;;;4.10;99.90;;;;;;5065551;28;20254;-84
2020/12/27 01:46:33;;;;;;;2.83;1.27;;;4.10;99.90;;;;;;5064589;28;20277;-82
2020/12/27 01:49:00;;;;;;;1.38;1.27;;;4.10;99.90;;;;;;5064882;28;20198;-83
2020/12/27 01:51:27;;;;;;;1.52;1.42;;;4.00;99.90;;;;;;5065087;28;20206;-83
2020/12/27 01:53:54;;;;;;;1.25;1.15;;;4.00;99.90;;;;;;5064754;28;20221;-83
2020/12/27 01:56:28;;;;;;;2.05;1.13;;;4.00;99.90;;;;;;5063907;28;20221;-84
2020/12/27 01:58:59;;;;;;;1.17;1.10;;;4.00;99.90;;;;;;5064510;28;20182;-83
2020/12/27 02:01:28;;;;;;;0.88;0.80;;;4.00;99.90;;;;;;5065283;28;20186;-85
2020/12/27 02:03:55;;;;;;;1.23;1.13;;;4.00;99.90;;;;;;5065836;28;20190;-81
2020/12/27 02:06:22;;;;;;;4.20;1.00;;;4.00;99.90;;;;;;5066331;28;20222;-85
2020/12/27 02:08:50;;;;;;;2.15;1.33;;;4.00;99.90;;;;;;5065262;28;20198;-83
2020/12/27 02:11:21;;;;;;;1.95;1.33;;;4.00;99.90;;;;;;5065032;28;20203;-83
2020/12/27 02:13:49;;;;;;;1.10;1.02;;;4.00;99.90;;;;;;5064881;28;20214;-82
2020/12/27 02:16:17;;;;;;;1.20;1.10;;;4.00;99.90;;;;;;5065015;28;20643;-84
2020/12/27 02:18:44;;;;;;;1.17;1.08;;;4.00;99.90;;;;;;5064719;28;20226;-81
2020/12/27 02:21:10;;;;;;;1.40;1.20;;;4.00;99.90;;;;;;5065330;28;20202;-83
2020/12/27 02:23:37;;;;;;;2.33;1.73;;;4.00;99.90;;;;;;5065177;28;20201;-85
2020/12/27 02:26:05;;;;;;;1.10;1.00;;;4.00;99.90;;;;;;5063052;28;20230;-83
2020/12/27 02:28:32;;;;;;;1.25;1.15;;;4.00;99.90;;;;;;5065787;28;20202;-83
2020/12/27 02:30:58;;;;;;;2.10;1.02;;;4.00;99.90;;;;;;5065202;28;20201;-82
2020/12/27 02:33:24;;;;;;;1.40;1.27;;;4.00;99.90;;;;;;5065236;28;20208;-83
2020/12/27 02:35:51;;;;;;;1.45;1.10;;;4.00;99.90;;;;;;5064594;28;20222;-84
2020/12/27 02:38:17;;;;;;;1.25;1.15;;;4.00;99.90;;;;;;5065394;28;20204;-85
2020/12/27 02:40:44;;;;;;;1.83;1.10;;;4.10;99.90;;;;;;5065326;28;20205;-83
2020/12/27 02:43:14;;;;;;;1.00;1.00;;;4.10;99.90;;;;;;5063009;28;20190;-83
2020/12/27 02:45:40;;;;;;;1.17;1.05;;;4.10;99.90;;;;;;5056780;28;20215;-83
2020/12/27 02:48:07;;;;;;;1.05;1.00;;;4.00;99.90;;;;;;5058229;28;20654;-82
2020/12/27 02:50:33;;;;;;;2.75;1.13;;;4.00;99.90;;;;;;5059326;28;20208;-84
2020/12/27 02:52:59;;;;;;;1.90;1.35;;;4.00;99.90;;;;;;5059569;28;20213;-83
2020/12/27 02:55:26;;;;;;;1.00;1.00;;;4.10;99.90;;;;;;5059759;28;20735;-82
2020/12/27 02:57:52;;;;;;;2.28;1.50;;;4.00;99.90;;;;;;5059667;28;20198;-84
2020/12/27 03:00:19;;;;;;;3.28;1.10;;;4.10;99.90;;;;;;5060857;28;20251;-82
2020/12/27 03:02:46;;;;;;;3.30;1.55;;;4.10;99.90;;;;;;5060812;28;20245;-82
2020/12/27 03:05:12;;;;;;;1.02;0.93;;;4.10;99.90;;;;;;5060144;28;20714;-84
2020/12/27 03:07:38;;;;;;;1.95;0.98;;;4.10;99.90;;;;;;5061564;28;20533;-85
2020/12/27 03:10:05;;;;;;;1.98;1.25;;;4.10;99.90;;;;;;5064064;28;20205;-84
2020/12/27 03:12:31;;;;;;;1.23;1.10;;;4.10;99.90;;;;;;5064762;28;20201;-84
2020/12/27 03:14:57;;;;;;;1.27;1.17;;;4.10;99.90;;;;;;5061710;28;20218;-85
2020/12/27 03:17:24;;;;;;;2.47;1.40;;;4.10;99.90;;;;;;5060672;28;20198;-83
2020/12/27 03:19:51;;;;;;;0.80;0.80;;;4.10;99.90;;;;;;5060772;28;20746;-82
2020/12/27 03:22:17;;;;;;;2.65;1.10;;;4.20;99.90;;;;;;5061521;28;20213;-83
2020/12/27 03:24:43;;;;;;;1.15;1.05;;;4.20;99.90;;;;;;5061409;28;20270;-84
2020/12/27 03:27:09;;;;;;;1.27;0.98;;;4.20;99.90;;;;;;5059994;28;20206;-82
2020/12/27 03:29:36;;;;;;;0.93;0.90;;;4.20;99.90;;;;;;5060498;28;20550;-83
2020/12/27 03:32:02;;;;;;;1.27;0.80;;;4.20;99.90;;;;;;5057337;28;20191;-83
2020/12/27 03:34:29;;;;;;;1.20;1.00;;;4.20;99.90;;;;;;5057089;28;20201;-82
2020/12/27 03:36:55;;;;;;;0.80;0.80;;;4.20;99.90;;;;;;5057098;28;20210;-82
2020/12/27 03:39:22;;;;;;;3.15;0.90;;;4.20;99.90;;;;;;5057772;28;20591;-81
2020/12/27 03:41:48;;;;;;;1.10;1.00;;;4.20;99.90;;;;;;5058117;28;20198;-82
2020/12/27 03:44:14;;;;;;;0.82;0.77;;;4.20;99.90;;;;;;5057283;28;20271;-82
2020/12/27 03:46:42;;;;;;;1.30;0.88;;;4.20;99.90;;;;;;5055929;28;20218;-82
2020/12/27 03:49:08;;;;;;;0.60;0.60;;;4.20;99.90;;;;;;5057035;28;20204;-82
2020/12/27 03:51:35;;;;;;;0.90;0.90;;;4.20;99.90;;;;;;5057366;28;20205;-82
2020/12/27 03:54:01;;;;;;;0.95;0.85;;;4.20;99.90;;;;;;5057193;28;20194;-81
2020/12/27 03:56:27;;;;;;;0.80;0.70;;;4.20;99.90;;;;;;5057166;28;20215;-83
2020/12/27 03:58:54;;;;;;;0.70;0.70;;;4.20;99.90;;;;;;5058560;28;20194;-83
2020/12/27 04:01:20;;;;;;;0.88;0.77;;;4.20;99.90;;;;;;5057385;28;20229;-83
2020/12/27 04:03:46;;;;;;;1.17;1.10;;;4.20;99.90;;;;;;5057494;28;20593;-83
2020/12/27 04:06:13;;;;;;;1.10;0.93;;;4.20;99.90;;;;;;5057638;28;20218;-83
2020/12/27 04:08:40;;;;;;;0.90;0.90;;;4.20;99.90;;;;;;5058118;28;20217;-84
2020/12/27 04:11:06;;;;;;;1.20;0.95;;;4.20;99.90;;;;;;5057519;28;20197;-82
2020/12/27 04:13:33;;;;;;;0.80;0.80;;;4.30;99.90;;;;;;5057581;28;20202;-84
2020/12/27 04:16:02;;;;;;;1.00;0.90;;;4.20;99.90;;;;;;5057045;28;20210;-82
2020/12/27 04:18:28;;;;;;;1.85;1.10;;;4.20;99.90;;;;;;5057450;28;20198;-81
2020/12/27 04:20:54;;;;;;;1.13;1.00;;;4.20;99.90;;;;;;5057154;28;20202;-83
2020/12/27 04:23:20;;;;;;;1.25;0.95;;;4.30;99.90;;;;;;5057350;28;20210;-84
2020/12/27 04:25:47;;;;;;;0.90;0.70;;;4.30;99.90;;;;;;5049349;28;20219;-83
2020/12/27 04:28:14;;;;;;;1.45;1.35;;;4.30;99.90;;;;;;5056841;28;20194;-81
2020/12/27 04:30:40;;;;;;;1.20;0.75;;;4.30;99.90;;;;;;5057398;28;20228;-80
2020/12/27 04:33:06;;;;;;;0.77;0.77;;;4.30;99.90;;;;;;5056680;28;20229;-84
2020/12/27 04:35:33;;;;;;;0.90;0.60;;;4.20;99.90;;;;;;5056502;28;20225;-81
2020/12/27 04:37:59;;;;;;;0.90;0.80;;;4.30;99.90;;;;;;5056800;28;20228;-85
2020/12/27 04:40:25;;;;;;;1.00;0.90;;;4.30;99.90;;;;;;5056535;28;20197;-83
2020/12/27 04:42:53;;;;;;;0.90;0.70;;;4.30;99.90;;;;;;5057061;28;20197;-85
2020/12/27 04:45:19;;;;;;;1.80;0.80;;;4.30;99.90;;;;;;5056116;28;20702;-82
2020/12/27 04:47:46;;;;;;;0.68;0.65;;;4.30;99.90;;;;;;5056898;28;20194;-83
2020/12/27 04:50:13;;;;;;;1.00;0.90;;;4.30;99.90;;;;;;5041076;28;20667;-85
2020/12/27 04:52:40;;;;;;;0.70;0.60;;;4.30;99.90;;;;;;5060974;28;20195;-83
2020/12/27 04:55:06;;;;;;;1.05;0.70;;;4.30;99.90;;;;;;5060958;28;20699;-84
2020/12/27 04:57:37;;;;;;;0.80;0.68;;;4.30;99.90;;;;;;5060538;28;20187;-83
2020/12/27 05:00:06;;;;;;;0.68;0.68;;;4.40;99.90;;;;;;5060324;28;20202;-81
2020/12/27 05:02:33;;;;;;;0.60;0.60;;;4.30;99.90;;;;;;5060151;28;20213;-83
2020/12/27 05:05:01;;;;;;;1.10;0.60;;;4.30;99.90;;;;;;5060754;28;20230;-83
2020/12/27 05:07:28;;;;;;;0.60;0.60;;;4.30;99.90;;;;;;5062594;28;20213;-82
2020/12/27 05:09:54;;;;;;;1.77;1.17;;;4.30;99.90;;;;;;5063052;28;20254;-83
2020/12/27 05:12:20;;;;;;;0.70;0.70;;;4.30;99.90;;;;;;5062403;28;20206;-82
2020/12/27 05:14:47;;;;;;;0.60;0.50;;;4.30;99.90;;;;;;5061798;28;20194;-83
2020/12/27 05:17:15;;;;;;;0.60;0.60;;;4.30;99.90;;;;;;5061620;28;20198;-83
2020/12/27 05:19:42;;;;;;;0.82;0.55;;;4.30;99.90;;;;;;5061761;28;20268;-82
2020/12/27 05:22:09;;;;;;;0.70;0.65;;;4.30;99.90;;;;;;5060557;28;20198;-83
2020/12/27 05:24:37;;;;;;;0.60;0.57;;;4.30;99.90;;;;;;5061254;28;20210;-82
2020/12/27 05:27:06;;;;;;;0.60;0.60;;;4.30;99.90;;;;;;5042081;28;20191;-83
2020/12/27 05:29:34;;;;;;;0.80;0.80;;;4.30;99.90;;;;;;5060601;28;20194;-83
2020/12/27 05:32:01;;;;;;;1.35;0.70;;;4.30;99.90;;;;;;5042477;28;20667;-85
2020/12/27 05:34:29;;;;;;;0.60;0.60;;;4.30;99.90;;;;;;5061420;28;20295;-83
2020/12/27 05:36:57;;;;;;;0.60;0.50;;;4.30;99.90;;;;;;5060676;28;20218;-84
2020/12/27 05:39:24;;;;;;;1.00;0.90;;;4.30;99.90;;;;;;5060405;28;20194;-81
2020/12/27 05:41:50;;;;;;;0.70;0.70;;;4.40;99.90;;;;;;5060243;28;20201;-83
2020/12/27 05:44:20;;;;;;;0.70;0.60;;;4.30;99.90;;;;;;5060252;28;20202;-83
2020/12/27 05:46:46;;;;;;;0.70;0.68;;;4.30;99.90;;;;;;5060822;28;20222;-84
2020/12/27 05:49:12;;;;;;;1.00;0.60;;;4.40;99.90;;;;;;5060721;28;20285;-84
2020/12/27 05:51:51;;;;;;;0.60;0.60;;;4.40;99.90;;;;;;5059797;28;20201;-81
2020/12/27 05:54:27;;;;;;;0.65;0.57;;;4.40;99.90;;;;;;5059657;28;20618;-82
2020/12/27 05:56:56;;;;;;;0.70;0.70;;;4.40;99.90;;;;;;5058994;28;20210;-83
2020/12/27 05:59:26;;;;;;;0.60;0.50;;;4.40;99.90;;;;;;5059559;28;20202;-84
2020/12/27 06:01:55;;;;;;;0.60;0.50;;;4.40;99.90;;;;;;5059680;28;20190;-83
2020/12/27 06:04:54;;;;;;;0.60;0.50;;;4.50;99.90;;;;;;5059515;28;20207;-81
2020/12/27 06:07:34;;;;;;;0.60;0.50;;;4.50;99.90;;;;;;5059488;28;20199;-81
2020/12/27 06:10:16;;;;;;;1.92;0.65;;;4.50;99.90;;;;;;5059244;28;20216;-83
2020/12/27 06:13:18;;;;;;;0.60;0.50;;;4.50;99.90;;;;;;5059865;28;20294;-80
2020/12/27 06:15:47;;;;;;;0.60;0.50;;;4.50;99.90;;;;;;5056731;28;20219;-83
2020/12/27 06:18:14;;;;;;;1.13;0.80;;;4.50;99.90;;;;;;5059551;28;20218;-84
2020/12/27 06:20:42;;;;;;;0.70;0.68;;;4.50;99.90;;;;;;5059620;28;20225;-80
2020/12/27 06:23:10;;;;;;;0.60;0.50;;;4.50;99.90;;;;;;5059394;28;20203;-85
2020/12/27 06:25:38;;;;;;;0.70;0.70;;;4.50;99.90;;;;;;5059332;28;20272;-85
2020/12/27 06:28:05;;;;;;;1.50;0.60;;;4.60;99.90;;;;;;5058531;28;20201;-84
2020/12/27 06:30:34;;;;;;;0.60;0.50;;;4.60;99.90;;;;;;5058994;28;20202;-83
2020/12/27 06:33:13;;;;;;;0.70;0.50;;;4.50;99.90;;;;;;5060250;28;20222;-84
2020/12/27 06:35:43;;;;;;;0.70;0.50;;;4.60;99.90;;;;;;5060416;28;20219;-84
2020/12/27 06:38:15;;;;;;;0.60;0.60;;;4.60;99.90;;;;;;5058808;28;20194;-82
2020/12/27 06:40:44;;;;;;;0.60;0.50;;;4.60;99.90;;;;;;5058628;28;20568;-81
2020/12/27 06:43:18;;;;;;;1.10;0.77;;;4.60;99.90;;;;;;5058369;28;20202;-83
2020/12/27 06:45:44;;;;;;;0.60;0.60;;;4.60;99.90;;;;;;5058378;28;20229;-83
2020/12/27 06:48:11;;;;;;;0.63;0.50;;;4.70;99.90;;;;;;5058539;28;20212;-82
2020/12/27 06:50:46;;;;;;;1.00;0.60;;;4.60;99.90;;;;;;5058576;28;20214;-84
2020/12/27 06:53:38;;;;;;;0.80;0.60;;;4.60;99.90;;;;;;5058643;28;20570;-84
2020/12/27 06:56:05;;;;;;;0.60;0.52;;;4.70;99.90;;;;;;5057793;28;20633;-84
2020/12/27 06:58:31;;;;;;;0.70;0.60;;;4.70;99.90;;;;;;5057556;28;20204;-82
2020/12/27 07:01:12;;;;;;;0.60;0.60;;;4.70;99.90;;;;;;5057911;28;20194;-83
2020/12/27 07:03:38;;;;;;;0.50;0.50;;;4.70;99.90;;;;;;5057405;28;20205;-83
2020/12/27 07:06:19;;;;;;;0.60;0.57;;;4.70;99.90;;;;;;5057423;28;20696;-83
2020/12/27 07:08:47;;;;;;;1.05;0.60;;;4.70;99.90;;;;;;5057895;28;20687;-83
2020/12/27 07:11:17;;;;;;;0.60;0.60;;;4.70;99.90;;;;;;5057488;28;20195;-84
2020/12/27 07:13:45;;;;;;;0.90;0.68;;;4.70;99.90;;;;;;5057088;28;20205;-82
2020/12/27 07:16:13;;;;;;;3.13;0.57;;;4.70;99.90;;;;;;5057817;28;20214;-83
2020/12/27 07:18:40;;;;;;;0.60;0.50;;;4.70;99.90;;;;;;5057664;28;20202;-81
2020/12/27 07:21:13;;;;;;;0.85;0.63;;;4.70;99.90;;;;;;5057680;28;20198;-80
2020/12/27 07:23:48;;;;;;;0.73;0.60;;;4.70;99.90;;;;;;5057918;28;20186;-80
2020/12/27 07:26:14;;;;;;;0.93;0.60;;;4.70;99.90;;;;;;5056610;28;20596;-82
2020/12/27 07:28:40;;;;;;;0.80;0.60;;;4.70;99.90;;;;;;5056924;28;20194;-80
2020/12/27 07:31:07;;;;;;;0.70;0.50;;;4.60;99.90;;;;;;5056258;28;20205;-81
2020/12/27 07:33:34;;;;;;;0.60;0.60;;;4.60;99.90;;;;;;5057053;28;20195;-82
2020/12/27 07:36:02;;;;;;;0.70;0.50;;;4.50;99.90;;;;;;5056773;28;20210;-81
2020/12/27 07:39:02;;;;;;;0.50;0.50;;;4.40;99.90;;;;;;5056702;28;20198;-82
2020/12/27 07:41:31;;;;;;;0.60;0.40;;;4.30;99.90;;;;;;5052076;28;20611;-80
2020/12/27 07:43:58;;;;;;;0.60;0.50;;;4.30;99.90;;;;;;5056276;28;20198;-82
2020/12/27 07:46:26;;;;;;;1.65;0.95;;;4.20;99.90;;;;;;5055724;28;20226;-80
2020/12/27 07:48:53;;;;;;;6.82;0.73;;;4.20;99.90;;;;;;5056322;28;20313;-81
2020/12/27 07:51:21;;;;;;;0.60;0.50;;;4.30;99.90;;;;;;5056525;28;20195;-82
2020/12/27 07:53:49;;;;;;;0.60;0.50;;;4.30;99.90;;;;;;5056254;28;20198;-81
2020/12/27 07:56:19;;;;;;;0.60;0.60;;;4.40;99.90;;;;;;5055911;28;20202;-78
2020/12/27 07:58:49;;;;;;;2.55;0.50;;;4.40;99.90;;;;;;5056230;28;20189;-80
2020/12/27 08:01:22;;;;;;;0.50;0.40;;;4.40;99.90;;;;;;5056044;28;20202;-79
2020/12/27 08:03:53;;;;;;;8.60;0.75;;;4.50;99.90;;;;;;5056376;28;20198;-80
2020/12/27 08:06:21;;;;;;;0.50;0.43;;;4.50;99.90;;;;;;5055927;28;20771;-79
2020/12/27 08:08:48;;;;;;;0.82;0.70;;;4.60;99.90;;;;;;5056489;28;20201;-80
2020/12/27 08:11:22;;;;;;;2.00;0.70;;;4.60;99.90;;;;;;5055727;28;20198;-80
2020/12/27 08:13:52;;;;;;;0.70;0.60;;;4.60;99.90;;;;;;5054674;28;20263;-82
2020/12/27 08:16:23;;;;;;;1.05;0.47;;;4.70;99.90;;;;;;5055294;28;20219;-79
2020/12/27 08:19:01;;;;;;;0.70;0.60;;;4.70;99.90;;;;;;5055355;28;20195;-79
2020/12/27 08:21:30;;;;;;;0.60;0.50;;;4.70;99.90;;;;;;5055895;28;20225;-80
2020/12/27 08:24:01;;;;;;;0.68;0.57;;;4.70;99.90;;;;;;5055331;28;20274;-79
2020/12/27 08:26:28;;;;;;;0.90;0.68;;;4.60;99.90;;;;;;5059275;28;20688;-80
2020/12/27 08:29:08;;;;;;;0.70;0.50;;;4.70;99.90;;;;;;5059332;28;20190;-79
2020/12/27 08:31:34;;;;;;;0.50;0.40;;;4.70;99.90;;;;;;5059877;28;20184;-80
2020/12/27 08:34:13;;;;;;;0.60;0.50;;;4.70;99.90;;;;;;5059312;28;20201;-80
2020/12/27 08:36:40;;;;;;;0.70;0.50;;;4.80;99.90;;;;;;5059028;28;20798;-79
2020/12/27 08:39:21;;;;;;;0.88;0.50;;;4.70;99.90;;;;;;5060406;28;20195;-81
2020/12/27 08:41:55;;;;;;;0.60;0.50;;;4.80;99.90;;;;;;5060405;28;20224;-80
2020/12/27 08:44:45;;;;;;;0.85;0.80;;;4.80;99.90;;;;;;5059848;28;20587;-80
2020/12/27 08:47:22;;;;;;;0.73;0.60;;;4.80;99.90;;;;;;5060802;28;20197;-80
2020/12/27 08:49:58;;;;;;;1.38;0.60;;;4.80;99.90;;;;;;5062629;28;20571;-80
2020/12/27 08:52:26;;;;;;;0.50;0.50;;;4.80;99.90;;;;;;5061692;28;20185;-80
2020/12/27 08:54:56;;;;;;;0.70;0.60;;;4.90;99.90;;;;;;5061639;28;20187;-80
2020/12/27 08:57:28;;;;;;;0.60;0.50;;;4.90;99.90;;;;;;5061347;28;20186;-83
2020/12/27 09:00:05;;;;;;;0.50;0.50;;;4.90;99.90;;;;;;5060900;28;20308;-81
2020/12/27 09:02:33;;;;;;;0.95;0.60;;;4.80;99.90;;;;;;5062530;28;20197;-81
2020/12/27 09:05:10;;;;;;;0.70;0.55;;;4.70;99.90;;;;;;5062181;28;20214;-81
2020/12/27 09:07:39;;;;;;;0.60;0.50;;;4.70;99.90;;;;;;5061625;28;20332;-81
2020/12/27 09:10:13;;;;;;;0.65;0.60;;;4.70;99.90;;;;;;5061221;28;20999;-81
2020/12/27 09:12:57;;;;;;;0.50;0.50;;;4.80;99.90;;;;;;5062446;28;20187;-81
2020/12/27 09:15:27;;;;;;;0.50;0.50;;;4.80;99.90;;;;;;5062293;28;20217;-82
2020/12/27 09:17:55;;;;;;;0.75;0.75;;;4.70;99.90;;;;;;5062922;28;20251;-80
2020/12/27 09:20:25;;;;;;;0.70;0.60;;;4.70;99.90;;;;;;5062551;28;20571;-82
2020/12/27 09:22:55;;;;;;;0.52;0.50;;;4.60;99.90;;;;;;5062885;28;20201;-82
2020/12/27 09:25:23;;;;;;;0.80;0.50;;;4.60;99.90;;;;;;5061682;28;20284;-82
2020/12/27 09:27:51;;;;;;;0.60;0.55;;;4.50;99.90;;;;;;5061293;28;20202;-80
2020/12/27 09:30:21;;;;;;;0.57;0.52;;;4.40;99.90;;;;;;5061372;28;20208;-81
2020/12/27 09:32:48;;;;;;;0.70;0.57;;;4.40;99.90;;;;;;5059721;28;20224;-79
2020/12/27 09:35:22;;;;;;;0.80;0.80;;;4.30;99.90;;;;;;5058420;28;20277;-81
2020/12/27 09:37:49;;;;;;;0.85;0.50;;;4.20;99.90;;;;;;5059052;28;20284;-80
2020/12/27 09:40:21;;;;;;;0.77;0.73;;;4.20;99.90;;;;;;5058766;28;20197;-81
2020/12/27 09:42:48;;;;;;;1.00;0.60;;;4.10;99.90;;;;;;5058951;28;20235;-81
2020/12/27 09:45:19;;;;;;;0.60;0.55;;;4.00;99.90;;;;;;5057894;28;20323;-81
2020/12/27 09:47:57;;;;;;;0.68;0.60;;;4.00;99.90;;;;;;5057948;28;20190;-81
2020/12/27 09:50:34;;;;;;;0.70;0.60;;;3.90;99.90;;;;;;5058515;28;20198;-82
2020/12/27 09:53:02;;;;;;;0.50;0.50;;;3.90;99.90;;;;;;5058823;28;20249;-81
2020/12/27 09:55:28;;;;;;;0.57;0.50;;;3.90;99.90;;;;;;5058396;28;20217;-81
2020/12/27 09:57:55;;;;;;;1.23;0.70;;;3.90;99.90;;;;;;5058244;28;20205;-80
2020/12/27 10:00:23;;;;;;;0.60;0.57;;;3.80;99.90;;;;;;5058794;28;20370;-80
2020/12/27 10:02:55;;;;;;;0.50;0.50;;;3.80;99.90;;;;;;5058702;28;20277;-82
2020/12/27 10:05:21;;;;;;;0.50;0.50;;;3.90;99.90;;;;;;5058193;28;20215;-82
2020/12/27 10:07:51;;;;;;;1.88;0.60;;;3.90;99.90;;;;;;5058972;28;20213;-82
2020/12/27 10:10:22;;;;;;;0.60;0.50;;;3.80;99.90;;;;;;5059357;28;20202;-81
2020/12/27 10:12:51;;;;;;;0.60;0.50;;;3.90;99.90;;;;;;5059344;28;20665;-81
2020/12/27 10:15:37;;;;;;;0.80;0.65;;;3.90;99.90;;;;;;5058214;28;20309;-82
2020/12/27 10:18:10;;;;;;;0.52;0.50;;;4.00;99.90;;;;;;5057916;28;20583;-81
2020/12/27 10:20:37;;;;;;;0.60;0.50;;;4.00;99.90;;;;;;5058567;28;20201;-80
2020/12/27 10:23:04;;;;;;;0.60;0.50;;;4.00;99.90;;;;;;5058573;28;20222;-81
2020/12/27 10:25:33;;;;;;;0.80;0.60;;;4.00;99.90;;;;;;5057705;28;20308;-82
2020/12/27 10:27:59;;;;;;;0.50;0.50;;;4.10;99.90;;;;;;5070541;28;20586;-81
2020/12/27 10:30:25;;;;;;;0.60;0.50;;;4.10;99.90;;;;;;5069112;28;20567;-83
2020/12/27 10:32:52;;;;;;;0.70;0.55;;;4.20;99.90;;;;;;5058419;28;20293;-79
2020/12/27 10:35:20;;;;;;;0.60;0.57;;;4.20;99.90;;;;;;5057908;28;20746;-82
2020/12/27 10:37:46;;;;;;;0.70;0.60;;;4.20;99.90;;;;;;5057868;28;20229;-83
2020/12/27 10:40:12;;;;;;;0.57;0.57;;;4.30;99.90;;;;;;5057941;28;20244;-82
2020/12/27 10:42:38;;;;;;;0.70;0.70;;;4.30;99.90;;;;;;5058215;28;20202;-83
2020/12/27 10:45:05;;;;;;;1.05;0.60;;;4.30;99.90;;;;;;5057303;28;20222;-83
2020/12/27 10:47:31;;;;;;;0.60;0.50;;;4.30;99.90;;;;;;5056793;28;20541;-83
2020/12/27 10:49:57;;;;;;;1.23;0.60;;;4.20;99.90;;;;;;5058333;28;20699;-82
2020/12/27 10:52:25;;;;;;;0.70;0.60;;;4.20;99.90;;;;;;5058477;28;20564;-81
2020/12/27 10:54:51;;;;;;;0.88;0.55;;;4.20;99.90;;;;;;5057078;28;20247;-82
2020/12/27 10:57:17;;;;;;;0.60;0.57;;;4.20;99.90;;;;;;5057533;28;20198;-82
2020/12/27 10:59:43;;;;;;;0.70;0.60;;;4.20;99.90;;;;;;5057352;28;20832;-80
2020/12/27 11:02:10;;;;;;;0.70;0.60;;;4.20;99.90;;;;;;5057617;28;20198;-82
2020/12/27 11:04:36;;;;;;;0.60;0.60;;;4.20;99.90;;;;;;5057446;28;20205;-82
2020/12/27 11:07:02;;;;;;;1.00;0.60;;;4.20;99.90;;;;;;5057017;28;20651;-83
2020/12/27 11:09:29;;;;;;;1.08;0.80;;;4.30;99.90;;;;;;5057300;28;20189;-81
2020/12/27 11:11:56;;;;;;;0.60;0.60;;;4.30;99.90;;;;;;5058222;28;20604;-83
2020/12/27 11:14:23;;;;;;;1.55;0.80;;;4.40;99.90;;;;;;5057928;28;20280;-82
2020/12/27 11:16:56;;;;;;;0.70;0.70;;;4.40;99.90;;;;;;5057201;28;20300;-81
2020/12/27 11:19:30;;;;;;;0.70;0.70;;;4.40;99.90;;;;;;5057925;28;20510;-83
2020/12/27 11:21:56;;;;;;;0.80;0.80;;;4.50;99.90;;;;;;5058019;28;20202;-84
2020/12/27 11:24:23;;;;;;;0.68;0.68;;;4.50;99.90;;;;;;5057089;28;20568;-83
2020/12/27 11:26:59;;;;;;;0.68;0.57;;;4.60;99.90;;;;;;5057095;28;20272;-82
2020/12/27 11:29:30;;;;;;;0.98;0.60;;;4.60;99.90;;;;;;5037434;28;20199;-81
2020/12/27 11:31:59;;;;;;;1.50;0.80;;;4.60;99.90;;;;;;5037366;28;20202;-83
2020/12/27 11:34:25;;;;;;;1.27;1.02;;;4.60;99.90;;;;;;5037540;28;20200;-82
2020/12/27 11:37:14;;;;;;;;;;;;;;;;;;;;;
2020/12/27 11:39:41;;;;;;;0.60;0.50;;;4.60;99.90;;;;;;5038315;28;20199;-81
2020/12/27 11:42:19;;;;;;;0.65;0.60;;;4.60;99.90;;;;;;5036883;28;20569;-82
2020/12/27 11:44:45;;;;;;;0.65;0.65;;;4.60;99.90;;;;;;5035901;28;20286;-81
2020/12/27 11:47:11;;;;;;;1.10;0.85;;;4.60;99.90;;;;;;5036925;28;20577;-83
2020/12/27 11:49:37;;;;;;;0.75;0.75;;;4.60;99.90;;;;;;5037197;28;20250;-83
2020/12/27 11:52:04;;;;;;;0.70;0.60;;;4.60;99.90;;;;;;5036475;28;20201;-83
2020/12/27 11:54:30;;;;;;;0.70;0.70;;;4.60;99.90;;;;;;5037048;28;20202;-81
2020/12/27 11:56:56;;;;;;;0.80;0.70;;;4.50;99.90;;;;;;5055324;28;20214;-83
2020/12/27 11:59:24;;;;;;;0.60;0.60;;;4.50;99.90;;;;;;5056624;28;20225;-83
2020/12/27 12:01:50;;;;;;;2.25;0.88;;;4.50;99.90;;;;;;5057158;28;20202;-82
2020/12/27 12:04:17;;;;;;;0.60;0.60;;;4.50;99.90;;;;;;5056715;28;20221;-83
2020/12/27 12:06:44;;;;;;;3.08;0.60;;;4.40;99.90;;;;;;5056379;28;20225;-84
2020/12/27 12:09:10;;;;;;;0.75;0.60;;;4.30;99.90;;;;;;5057068;28;20194;-83
2020/12/27 12:11:37;;;;;;;0.63;0.60;;;4.30;99.90;;;;;;5056934;28;20205;-83
2020/12/27 12:14:05;;;;;;;0.80;0.80;;;4.30;99.90;;;;;;5056963;28;20224;-82
2020/12/27 12:16:32;;;;;;;1.55;0.70;;;4.20;99.90;;;;;;5056070;28;20215;-82
2020/12/27 12:19:00;;;;;;;1.48;0.70;;;4.20;99.90;;;;;;5056930;28;20845;-81
2020/12/27 12:21:27;;;;;;;0.95;0.80;;;4.20;99.90;;;;;;5056934;28;20198;-82
2020/12/27 12:23:53;;;;;;;0.73;0.73;;;4.10;99.90;;;;;;5056650;28;20222;-81
2020/12/27 12:26:21;;;;;;;1.63;0.70;;;4.10;99.90;;;;;;5057017;28;20226;-83
2020/12/27 12:28:47;;;;;;;0.60;0.60;;;4.10;99.90;;;;;;5057973;28;20220;-83
2020/12/27 12:31:14;;;;;;;0.60;0.60;;;4.10;99.90;;;;;;5058686;28;20225;-83
2020/12/27 12:33:41;;;;;;;0.80;0.80;;;4.00;99.90;;;;;;5058575;28;20193;-82
2020/12/27 12:36:11;;;;;;;0.70;0.68;;;4.00;99.90;;;;;;5058224;28;20217;-83
2020/12/27 12:38:38;;;;;;;0.85;0.80;;;4.00;99.90;;;;;;5058447;28;20640;-84
2020/12/27 12:41:10;;;;;;;0.70;0.60;;;3.90;99.90;;;;;;5058890;28;20202;-84
2020/12/27 12:43:37;;;;;;;0.82;0.82;;;4.00;99.90;;;;;;5060023;28;20185;-84
2020/12/27 12:46:03;;;;;;;1.00;0.68;;;3.90;99.90;;;;;;5058803;28;20221;-83
2020/12/27 12:48:29;;;;;;;1.15;0.60;;;3.90;99.90;;;;;;5059455;28;20198;-84
2020/12/27 12:50:58;;;;;;;0.50;0.50;;;3.90;99.90;;;;;;5059368;28;20197;-80
2020/12/27 12:53:24;;;;;;;0.70;0.68;;;3.90;99.90;;;;;;5059451;28;20202;-83
2020/12/27 12:55:51;;;;;;;0.68;0.65;;;3.90;99.90;;;;;;5059421;28;20583;-80
2020/12/27 12:58:17;;;;;;;0.70;0.60;;;3.80;99.90;;;;;;5061352;28;20197;-82
2020/12/27 13:00:43;;;;;;;0.50;0.50;;;3.90;99.90;;;;;;5061449;28;20205;-82
2020/12/27 13:03:09;;;;;;;0.88;0.63;;;3.90;99.90;;;;;;5062349;28;20195;-82
2020/12/27 13:05:35;;;;;;;0.75;0.60;;;3.80;99.90;;;;;;5062070;28;20221;-82